Time,TemperatureF,DewpointF,PressureIn,WindDirection,WindDirectionDegrees,WindSpeedMPH,WindSpeedGustMPH,Humidity,HourlyPrecipIn,Conditions,Clouds,dailyrainin,SoftwareType,DateUTC
2013-05-30 00:13:00,49.5,47.0,30.05,NW,323,0.0,1.0,92,0.00,,,0.02,weatherlink.com 1.10,2013-05-30 07:13:00,
2013-05-30 00:28:00,48.8,47.0,30.05,NW,323,0.0,1.0,93,0.00,,,0.02,weatherlink.com 1.10,2013-05-30 07:28:00,
2013-05-30 00:43:00,49.4,48.0,30.04,NW,317,2.0,4.0,94,0.00,,,0.02,weatherlink.com 1.10,2013-05-30 07:43:00,
2013-05-30 00:58:00,49.5,48.0,30.04,NW,314,0.0,4.0,94,0.00,,,0.00,weatherlink.com 1.10,2013-05-30 07:58:00,
2013-05-30 01:13:00,49.2,48.0,30.04,NW,315,0.0,4.0,94,0.00,,,0.00,weatherlink.com 1.10,2013-05-30 08:13:00,
2013-05-30 01:28:00,48.9,47.0,30.03,NW,304,0.0,3.0,94,0.00,,,0.00,weatherlink.com 1.10,2013-05-30 08:28:00,
2013-05-30 01:43:00,48.3,47.0,30.03,NW,304,0.0,0.0,95,0.00,,,0.00,weatherlink.com 1.10,2013-05-30 08:43:00,
2013-05-30 01:58:00,47.7,47.0,30.03,NW,304,0.0,1.0,96,0.00,,,0.00,weatherlink.com 1.10,2013-05-30 08:58:00,
2013-05-30 02:13:00,48.0,48.0,30.03,NW,304,0.0,3.0,98,0.00,,,0.00,weatherlink.com 1.10,2013-05-30 09:13:00,
2013-05-30 02:29:00,47.6,47.0,30.03,NW,304,0.0,1.0,99,0.00,,,0.00,weatherlink.com 1.10,2013-05-30 09:29:00,
2013-05-30 02:44:00,47.9,48.0,30.03,NW,306,0.0,4.0,100,0.00,,,0.00,weatherlink.com 1.10,2013-05-30 09:44:00,
2013-05-30 02:59:00,48.3,48.0,30.03,NW,306,0.0,4.0,99,0.00,,,0.00,weatherlink.com 1.10,2013-05-30 09:59:00,
2013-05-30 03:14:00,48.2,48.0,30.03,NW,312,0.0,3.0,99,0.00,,,0.00,weatherlink.com 1.10,2013-05-30 10:14:00,
2013-05-30 03:29:00,48.5,48.0,30.03,NW,322,2.0,6.0,99,0.00,,,0.00,weatherlink.com 1.10,2013-05-30 10:29:00,
2013-05-30 03:44:00,48.5,48.0,30.03,NNW,329,0.0,1.0,97,0.00,,,0.00,weatherlink.com 1.10,2013-05-30 10:44:00,
2013-05-30 03:59:00,48.3,48.0,30.03,NNW,329,0.0,0.0,97,0.00,,,0.00,weatherlink.com 1.10,2013-05-30 10:59:00,
2013-05-30 04:14:00,48.6,48.0,30.04,NNW,331,0.0,4.0,97,0.00,,,0.00,weatherlink.com 1.10,2013-05-30 11:14:00,
2013-05-30 04:29:00,48.2,47.0,30.04,NW,304,0.0,2.0,96,0.00,,,0.00,weatherlink.com 1.10,2013-05-30 11:29:00,
2013-05-30 04:44:00,47.9,47.0,30.04,NW,316,2.0,5.0,98,0.00,,,0.00,weatherlink.com 1.10,2013-05-30 11:44:00,
2013-05-30 04:59:00,47.7,47.0,30.04,NW,317,0.0,3.0,97,0.00,,,0.00,weatherlink.com 1.10,2013-05-30 11:59:00,
2013-05-30 05:14:00,47.0,46.0,30.04,NW,317,0.0,3.0,97,0.00,,,0.00,weatherlink.com 1.10,2013-05-30 12:14:00,
2013-05-30 05:29:00,46.2,46.0,30.04,NW,317,0.0,3.0,98,0.00,,,0.00,weatherlink.com 1.10,2013-05-30 12:29:00,
2013-05-30 05:44:00,46.5,46.0,30.04,NNW,340,2.0,5.0,99,0.00,,,0.00,weatherlink.com 1.10,2013-05-30 12:44:00,
2013-05-30 05:59:00,47.4,47.0,30.05,NNW,333,4.0,6.0,99,0.00,,,0.00,weatherlink.com 1.10,2013-05-30 12:59:00,
2013-05-30 06:14:00,47.1,47.0,30.05,NNW,339,0.0,3.0,98,0.00,,,0.00,weatherlink.com 1.10,2013-05-30 13:14:00,
2013-05-30 06:29:00,46.8,47.0,30.05,NNW,331,0.0,4.0,99,0.00,,,0.00,weatherlink.com 1.10,2013-05-30 13:29:00,
2013-05-30 06:44:00,47.6,47.0,30.05,WNW,297,0.0,3.0,98,0.00,,,0.00,weatherlink.com 1.10,2013-05-30 13:44:00,
2013-05-30 06:59:00,47.7,47.0,30.06,WNW,297,2.0,3.0,98,0.00,,,0.00,weatherlink.com 1.10,2013-05-30 13:59:00,
2013-05-30 07:14:00,48.6,48.0,30.06,NNW,341,0.0,4.0,97,0.00,,,0.00,weatherlink.com 1.10,2013-05-30 14:14:00,
2013-05-30 07:29:00,50.1,49.0,30.06,NW,311,0.0,4.0,95,0.00,,,0.00,weatherlink.com 1.10,2013-05-30 14:29:00,
2013-05-30 07:44:00,51.7,49.0,30.06,NNW,333,1.0,2.0,89,0.00,,,0.00,weatherlink.com 1.10,2013-05-30 14:44:00,
2013-05-30 07:59:00,53.2,50.0,30.07,WNW,300,0.0,2.0,87,0.00,,,0.00,weatherlink.com 1.10,2013-05-30 14:59:00,
2013-05-30 08:14:00,54.5,49.0,30.07,North,355,4.0,6.0,83,0.00,,,0.00,weatherlink.com 1.10,2013-05-30 15:14:00,
2013-05-30 08:44:00,57.0,50.0,30.07,NW,317,2.0,5.0,78,0.00,,,0.00,weatherlink.com 1.10,2013-05-30 15:44:00,
2013-05-30 08:59:00,57.3,50.0,30.07,NNW,333,3.0,11.0,76,0.00,,,0.00,weatherlink.com 1.10,2013-05-30 15:59:00,
2013-05-30 09:14:00,58.6,50.0,30.07,NNW,340,0.0,10.0,73,0.00,,,0.00,weatherlink.com 1.10,2013-05-30 16:14:00,
2013-05-30 09:30:00,59.3,50.0,30.07,NW,310,1.0,10.0,72,0.00,,,0.00,weatherlink.com 1.10,2013-05-30 16:30:00,
2013-05-30 09:45:00,59.8,50.0,30.06,NW,311,3.0,9.0,71,0.00,,,0.00,weatherlink.com 1.10,2013-05-30 16:45:00,
2013-05-30 10:00:00,60.1,50.0,30.06,NW,308,3.0,9.0,70,0.00,,,0.00,weatherlink.com 1.10,2013-05-30 17:00:00,
2013-05-30 10:15:00,58.9,50.0,30.07,WNW,287,3.0,16.0,72,0.00,,,0.00,weatherlink.com 1.10,2013-05-30 17:15:00,
2013-05-30 10:30:00,58.0,49.0,30.07,NW,326,6.0,14.0,73,0.00,,,0.00,weatherlink.com 1.10,2013-05-30 17:30:00,
2013-05-30 10:45:00,57.8,50.0,30.07,NW,317,5.0,15.0,76,0.00,,,0.00,weatherlink.com 1.10,2013-05-30 17:45:00,
2013-05-30 11:00:00,59.2,52.0,30.08,NNW,331,10.0,16.0,76,0.00,,,0.00,weatherlink.com 1.10,2013-05-30 18:00:00,
2013-05-30 11:15:00,59.8,52.0,30.08,NW,320,5.0,17.0,74,0.00,,,0.00,weatherlink.com 1.10,2013-05-30 18:15:00,
2013-05-30 11:30:00,59.8,51.0,30.07,WNW,297,9.0,15.0,73,0.00,,,0.00,weatherlink.com 1.10,2013-05-30 18:30:00,
2013-05-30 11:45:00,59.8,52.0,30.07,NNW,329,7.0,16.0,74,0.00,,,0.00,weatherlink.com 1.10,2013-05-30 18:45:00,
2013-05-30 12:00:00,60.4,52.0,30.08,NW,318,7.0,18.0,73,0.00,,,0.00,weatherlink.com 1.10,2013-05-30 19:00:00,
2013-05-30 12:15:00,60.9,51.0,30.08,NW,315,9.0,16.0,71,0.00,,,0.00,weatherlink.com 1.10,2013-05-30 19:15:00,
2013-05-30 12:30:00,59.9,50.0,30.08,WNW,302,13.0,19.0,70,0.00,,,0.00,weatherlink.com 1.10,2013-05-30 19:30:00,
2013-05-30 12:45:00,61.0,51.0,30.08,NNW,344,12.0,20.0,69,0.00,,,0.00,weatherlink.com 1.10,2013-05-30 19:45:00,
2013-05-30 13:00:00,61.6,51.0,30.08,WNW,291,7.0,21.0,68,0.00,,,0.00,weatherlink.com 1.10,2013-05-30 20:00:00,
2013-05-30 13:15:00,61.2,51.0,30.08,NW,321,11.0,18.0,70,0.00,,,0.00,weatherlink.com 1.10,2013-05-30 20:15:00,
2013-05-30 13:30:00,62.1,53.0,30.07,NNW,338,8.0,16.0,71,0.00,,,0.00,weatherlink.com 1.10,2013-05-30 20:30:00,
2013-05-30 13:45:00,62.1,53.0,30.07,NW,307,9.0,16.0,71,0.00,,,0.00,weatherlink.com 1.10,2013-05-30 20:45:00,
2013-05-30 14:00:00,-999.0,-99.9,30.07,West,278,17.0,18.0,-999,0.00,,,0.00,weatherlink.com 1.10,2013-05-30 21:00:00,
2013-05-30 14:15:00,-999.0,-99.9,30.07,WNW,290,12.0,19.0,-999,0.00,,,0.00,weatherlink.com 1.10,2013-05-30 21:15:00,
2013-05-30 14:30:00,-999.0,-99.9,30.07,West,281,11.0,17.0,-999,0.00,,,0.00,weatherlink.com 1.10,2013-05-30 21:30:00,
2013-05-30 14:45:00,-999.0,-99.9,30.07,WNW,293,10.0,20.0,-999,0.00,,,0.00,weatherlink.com 1.10,2013-05-30 21:45:00,
2013-05-30 15:00:00,-999.0,-99.9,30.07,WNW,286,7.0,23.0,-999,0.00,,,0.00,weatherlink.com 1.10,2013-05-30 22:00:00,
2013-05-30 15:15:00,-999.0,-99.9,30.06,WNW,294,7.0,18.0,-999,0.00,,,0.00,weatherlink.com 1.10,2013-05-30 22:15:00,
2013-05-30 15:30:00,-999.0,-99.9,30.06,NW,306,12.0,19.0,-999,0.00,,,0.00,weatherlink.com 1.10,2013-05-30 22:30:00,
2013-05-30 15:45:00,-999.0,-99.9,30.06,NNW,331,6.0,18.0,-999,0.00,,,0.00,weatherlink.com 1.10,2013-05-30 22:45:00,
2013-05-30 16:00:00,-999.0,-99.9,30.06,NNW,333,9.0,19.0,-999,0.00,,,0.00,weatherlink.com 1.10,2013-05-30 23:00:00,
2013-05-30 16:16:00,-999.0,-99.9,30.06,West,266,9.0,20.0,-999,0.00,,,0.00,weatherlink.com 1.10,2013-05-30 23:16:00,
2013-05-30 16:31:00,-999.0,-99.9,30.06,WNW,286,10.0,18.0,-999,0.00,,,0.00,weatherlink.com 1.10,2013-05-30 23:31:00,
2013-05-30 16:46:00,-999.0,-99.9,30.06,West,280,8.0,16.0,-999,0.00,,,0.00,weatherlink.com 1.10,2013-05-30 23:46:00,
2013-05-30 17:01:00,-999.0,-99.9,30.06,WNW,296,8.0,15.0,-999,0.00,,,0.00,weatherlink.com 1.10,2013-05-31 00:01:00,
2013-05-30 17:16:00,-999.0,-99.9,30.06,WNW,282,9.0,17.0,-999,0.00,,,0.00,weatherlink.com 1.10,2013-05-31 00:16:00,
2013-05-30 17:31:00,-999.0,-99.9,30.06,WNW,289,6.0,16.0,-999,0.00,,,0.00,weatherlink.com 1.10,2013-05-31 00:31:00,
2013-05-30 17:46:00,-999.0,-99.9,30.06,NW,319,5.0,18.0,-999,0.00,,,0.00,weatherlink.com 1.10,2013-05-31 00:46:00,
2013-05-30 18:01:00,-999.0,-99.9,30.06,West,263,10.0,15.0,-999,0.00,,,0.00,weatherlink.com 1.10,2013-05-31 01:01:00,
2013-05-30 18:16:00,-999.0,-99.9,30.06,West,267,6.0,17.0,-999,0.00,,,0.00,weatherlink.com 1.10,2013-05-31 01:16:00,
2013-05-30 18:31:00,-999.0,-99.9,30.05,WNW,290,7.0,15.0,-999,0.00,,,0.00,weatherlink.com 1.10,2013-05-31 01:31:00,
2013-05-30 18:46:00,-999.0,-99.9,30.05,WNW,295,6.0,13.0,-999,0.00,,,0.00,weatherlink.com 1.10,2013-05-31 01:46:00,
2013-05-30 19:01:00,-999.0,-99.9,30.05,NNW,347,1.0,11.0,-999,0.00,,,0.00,weatherlink.com 1.10,2013-05-31 02:01:00,
2013-05-30 19:16:00,-999.0,-99.9,30.06,West,280,7.0,13.0,-999,0.00,,,0.00,weatherlink.com 1.10,2013-05-31 02:16:00,
2013-05-30 19:31:00,-999.0,-99.9,30.06,West,271,4.0,18.0,-999,0.00,,,0.00,weatherlink.com 1.10,2013-05-31 02:31:00,
2013-05-30 19:47:00,-999.0,-99.9,30.07,NW,315,5.0,13.0,-999,0.00,,,0.00,weatherlink.com 1.10,2013-05-31 02:47:00,
2013-05-30 20:02:00,-999.0,-99.9,30.07,NNW,329,2.0,11.0,-999,0.00,,,0.00,weatherlink.com 1.10,2013-05-31 03:02:00,
2013-05-30 20:17:00,-999.0,-99.9,30.07,WNW,298,2.0,10.0,-999,0.00,,,0.00,weatherlink.com 1.10,2013-05-31 03:17:00,
2013-05-30 20:32:00,54.5,48.0,30.07,NW,307,2.0,5.0,79,0.00,,,0.00,weatherlink.com 1.10,2013-05-31 03:32:00,
2013-05-30 20:47:00,54.4,48.0,30.07,NW,318,0.0,3.0,79,0.00,,,0.00,weatherlink.com 1.10,2013-05-31 03:47:00,
2013-05-30 21:02:00,53.5,48.0,30.07,NW,311,3.0,4.0,81,0.00,,,0.00,weatherlink.com 1.10,2013-05-31 04:02:00,
2013-05-30 21:17:00,52.8,48.0,30.07,NW,311,0.0,2.0,83,0.00,,,0.00,weatherlink.com 1.10,2013-05-31 04:17:00,
2013-05-30 21:32:00,52.8,48.0,30.07,NW,312,2.0,4.0,83,0.00,,,0.00,weatherlink.com 1.10,2013-05-31 04:32:00,
2013-05-30 21:47:00,53.1,48.0,30.07,WNW,302,9.0,9.0,82,0.00,,,0.00,weatherlink.com 1.10,2013-05-31 04:47:00,
2013-05-30 22:02:00,53.3,47.0,30.07,WNW,301,4.0,7.0,80,0.00,,,0.00,weatherlink.com 1.10,2013-05-31 05:02:00,
2013-05-30 22:17:00,53.8,47.0,30.08,NNW,337,3.0,6.0,77,0.00,,,0.00,weatherlink.com 1.10,2013-05-31 05:17:00,
2013-05-30 22:32:00,53.6,47.0,30.08,NNW,331,0.0,4.0,77,0.00,,,0.00,weatherlink.com 1.10,2013-05-31 05:32:00,
2013-05-30 22:47:00,52.5,47.0,30.08,NNW,339,0.0,1.0,80,0.00,,,0.00,weatherlink.com 1.10,2013-05-31 05:47:00,
2013-05-30 23:02:00,51.3,46.0,30.09,NNW,339,0.0,1.0,83,0.00,,,0.00,weatherlink.com 1.10,2013-05-31 06:02:00,
2013-05-30 23:17:00,50.5,46.0,30.08,NNW,339,0.0,1.0,85,0.00,,,0.00,weatherlink.com 1.10,2013-05-31 06:17:00,
2013-05-30 23:32:00,50.2,47.0,30.09,NNW,339,0.0,1.0,87,0.00,,,0.00,weatherlink.com 1.10,2013-05-31 06:32:00,
2013-05-30 23:47:00,49.8,46.0,30.09,NNW,339,1.0,2.0,87,0.00,,,0.00,weatherlink.com 1.10,2013-05-31 06:47:00,